Time;durP1;ratioP1;P1;durP2;ratioP2;P2;SDS_P1;SDS_P2;PMS_P1;PMS_P2;Temp;Humidity;BMP_temperature;BMP_pressure;BME280_temperature;BME280_humidity;BME280_pressure;Samples;Min_cycle;Max_cycle;Signal;HPM_P1;HPM_P2
2022/10/15 00:01:41;;;;;;;42.08;26.35;;;13.60;99.90;;;;;;5008715;28;20192;-59
2022/10/15 00:04:07;;;;;;;45.78;28.17;;;13.50;99.90;;;;;;5010994;28;20181;-59
2022/10/15 00:06:33;;;;;;;47.88;28.80;;;13.50;99.90;;;;;;5013233;28;20180;-58
2022/10/15 00:08:59;;;;;;;46.33;27.35;;;13.50;99.90;;;;;;5012754;28;20299;-59
2022/10/15 00:11:27;;;;;;;45.47;27.63;;;13.50;99.90;;;;;;5010753;28;20910;-62
2022/10/15 00:13:57;;;;;;;47.10;27.60;;;13.50;99.90;;;;;;4991023;28;20188;-58
2022/10/15 00:16:26;;;;;;;49.30;28.42;;;13.50;99.90;;;;;;5007201;28;20224;-59
2022/10/15 00:18:55;;;;;;;46.03;28.83;;;13.40;99.90;;;;;;5008945;28;20195;-58
2022/10/15 00:21:21;;;;;;;46.38;28.02;;;13.40;99.90;;;;;;5011867;28;20181;-58
2022/10/15 00:23:48;;;;;;;50.58;27.60;;;13.40;99.90;;;;;;5011694;28;20179;-58
2022/10/15 00:26:20;;;;;;;51.67;28.15;;;13.40;99.90;;;;;;5012835;28;20173;-58
2022/10/15 00:28:48;;;;;;;53.78;29.55;;;13.30;99.90;;;;;;5012275;28;20193;-58
2022/10/15 00:31:16;;;;;;;50.38;29.80;;;13.30;99.90;;;;;;5012914;28;20172;-58
2022/10/15 00:33:47;;;;;;;53.47;29.98;;;13.30;99.90;;;;;;5011811;28;20184;-58
2022/10/15 00:36:16;;;;;;;58.75;32.05;;;13.30;99.90;;;;;;5012978;28;20204;-58
2022/10/15 00:38:42;;;;;;;57.70;31.42;;;13.30;99.90;;;;;;5010084;28;20180;-59
2022/10/15 00:41:20;;;;;;;53.65;31.65;;;13.30;99.90;;;;;;5008064;28;20584;-58
2022/10/15 00:43:49;;;;;;;54.65;31.33;;;13.30;99.90;;;;;;5013036;28;20615;-57
2022/10/15 00:46:27;;;;;;;57.55;30.70;;;13.30;99.90;;;;;;4995016;28;20334;-59
2022/10/15 00:48:58;;;;;;;53.03;31.60;;;13.30;99.90;;;;;;5011187;28;20211;-64
2022/10/15 00:51:28;;;;;;;57.78;32.55;;;13.30;99.90;;;;;;5007348;28;20231;-58
2022/10/15 00:53:54;;;;;;;58.22;33.30;;;13.30;99.90;;;;;;5011653;28;20626;-58
2022/10/15 00:56:22;;;;;;;56.13;33.38;;;13.30;99.90;;;;;;5012545;28;20177;-57
2022/10/15 00:58:51;;;;;;;64.75;32.03;;;13.30;99.90;;;;;;5011462;28;20247;-58
2022/10/15 01:01:17;;;;;;;55.65;33.22;;;13.30;99.90;;;;;;5028373;28;20176;-58
2022/10/15 01:03:42;;;;;;;55.15;32.88;;;13.40;99.90;;;;;;5009751;28;20571;-59
2022/10/15 01:06:08;;;;;;;57.30;31.83;;;13.40;99.90;;;;;;5014839;28;20187;-59
2022/10/15 01:08:34;;;;;;;68.20;33.80;;;13.40;99.90;;;;;;5016297;28;20760;-59
2022/10/15 01:11:06;;;;;;;65.15;34.25;;;13.40;99.90;;;;;;5012043;28;20263;-60
2022/10/15 01:13:37;;;;;;;59.75;34.33;;;13.30;99.90;;;;;;5013857;28;20188;-59
2022/10/15 01:16:18;;;;;;;64.43;33.60;;;13.40;99.90;;;;;;5017776;28;20176;-59
2022/10/15 01:18:52;;;;;;;56.83;34.88;;;13.40;99.90;;;;;;5034790;28;20691;-57
2022/10/15 01:21:39;;;;;;;62.03;36.50;;;13.40;99.90;;;;;;5027684;28;20180;-59
2022/10/15 01:24:34;;;;;;;60.38;34.45;;;13.40;99.90;;;;;;5009134;28;20185;-59
2022/10/15 01:27:34;;;;;;;60.60;34.78;;;13.30;99.90;;;;;;5022507;28;20169;-59
2022/10/15 01:30:24;;;;;;;66.32;36.10;;;13.30;99.90;;;;;;5007332;28;20231;-58
2022/10/15 01:33:34;;;;;;;64.22;36.47;;;13.30;99.90;;;;;;5012253;28;20271;-60
2022/10/15 01:36:16;;;;;;;63.03;37.50;;;13.30;99.90;;;;;;4974569;28;20196;-59
2022/10/15 01:38:57;;;;;;;67.68;36.30;;;13.30;99.90;;;;;;4973984;28;20174;-58
2022/10/15 01:41:39;;;;;;;66.00;37.35;;;13.30;99.90;;;;;;4993919;28;20195;-58
2022/10/15 01:44:19;;;;;;;69.93;37.92;;;13.30;99.90;;;;;;5011123;28;20551;-58
2022/10/15 01:46:57;;;;;;;66.63;39.35;;;13.20;99.90;;;;;;5014176;28;20382;-59
2022/10/15 01:49:29;;;;;;;66.53;38.78;;;13.30;99.90;;;;;;5013618;28;20238;-59
2022/10/15 01:51:57;;;;;;;69.20;38.35;;;13.20;99.90;;;;;;5014657;28;20638;-58
2022/10/15 01:54:26;;;;;;;65.95;39.30;;;13.20;99.90;;;;;;5014406;28;20168;-58
2022/10/15 01:56:54;;;;;;;67.55;39.67;;;13.30;99.90;;;;;;5014087;28;20255;-59
2022/10/15 01:59:29;;;;;;;72.07;38.78;;;13.30;99.90;;;;;;5014146;28;20181;-59
2022/10/15 02:01:54;;;;;;;75.35;40.45;;;13.30;99.90;;;;;;5009890;28;20378;-59
2022/10/15 02:04:31;;;;;;;70.45;40.60;;;13.30;99.90;;;;;;4993958;28;20403;-58
2022/10/15 02:06:59;;;;;;;66.45;38.50;;;13.30;99.90;;;;;;5015483;28;20181;-58
2022/10/15 02:09:48;;;;;;;71.97;39.85;;;13.30;99.90;;;;;;5013972;28;20212;-59
2022/10/15 02:12:49;;;;;;;68.50;40.40;;;13.30;99.90;;;;;;5010253;28;20187;-59
2022/10/15 02:15:22;;;;;;;70.03;39.42;;;13.40;99.90;;;;;;5011838;28;20500;-58
2022/10/15 02:18:25;;;;;;;74.63;40.65;;;13.40;99.90;;;;;;5013796;28;20185;-58
2022/10/15 02:21:06;;;;;;;78.95;40.70;;;13.40;99.90;;;;;;5013536;28;20196;-59
2022/10/15 02:23:45;;;;;;;71.60;40.92;;;13.40;99.90;;;;;;5012949;28;20650;-57
2022/10/15 02:26:13;;;;;;;74.47;40.47;;;13.40;99.90;;;;;;5014256;28;20211;-58
2022/10/15 02:28:43;;;;;;;70.82;41.03;;;13.50;99.90;;;;;;5014055;28;20183;-59
2022/10/15 02:31:13;;;;;;;78.30;44.33;;;13.40;99.90;;;;;;4997996;28;20200;-59
2022/10/15 02:33:41;;;;;;;78.28;43.15;;;13.40;99.90;;;;;;4995273;28;20208;-62
2022/10/15 02:36:08;;;;;;;79.30;44.30;;;13.40;99.90;;;;;;5026479;28;20207;-58
2022/10/15 02:38:35;;;;;;;81.22;45.30;;;13.40;99.90;;;;;;5014524;28;20231;-59
2022/10/15 02:41:01;;;;;;;84.65;44.17;;;13.50;99.90;;;;;;5014866;28;20204;-58
2022/10/15 02:43:27;;;;;;;86.03;44.63;;;13.50;99.90;;;;;;5012358;28;20222;-57
2022/10/15 02:45:54;;;;;;;79.88;45.85;;;13.50;99.90;;;;;;5009164;28;20267;-58
2022/10/15 02:48:20;;;;;;;88.95;46.72;;;13.50;99.90;;;;;;5013030;28;20634;-57
2022/10/15 02:50:47;;;;;;;85.15;44.97;;;13.40;99.90;;;;;;5013960;28;20208;-58
2022/10/15 02:53:13;;;;;;;84.10;47.58;;;13.50;99.90;;;;;;5014215;28;20553;-58
2022/10/15 02:55:41;;;;;;;82.45;46.70;;;13.50;99.90;;;;;;5028137;28;20220;-58
2022/10/15 02:58:07;;;;;;;89.72;47.63;;;13.40;99.90;;;;;;5029263;28;20666;-58
2022/10/15 03:00:33;;;;;;;90.15;47.50;;;13.50;99.90;;;;;;5012630;28;20271;-58
2022/10/15 03:02:58;;;;;;;86.93;47.47;;;13.50;99.90;;;;;;5012803;28;20282;-58
2022/10/15 03:05:24;;;;;;;81.20;46.63;;;13.50;99.90;;;;;;5010013;28;20294;-58
2022/10/15 03:07:50;;;;;;;87.65;49.05;;;13.50;99.90;;;;;;5008255;28;20188;-58
2022/10/15 03:10:17;;;;;;;95.20;48.95;;;13.50;99.90;;;;;;5010346;28;20258;-58
2022/10/15 03:12:43;;;;;;;89.35;48.28;;;13.50;99.90;;;;;;5012720;28;20188;-58
2022/10/15 03:15:11;;;;;;;90.60;48.78;;;13.50;99.90;;;;;;5011103;28;20180;-58
2022/10/15 03:17:36;;;;;;;90.38;50.25;;;13.50;99.90;;;;;;5025786;28;20184;-59
2022/10/15 03:20:03;;;;;;;86.32;49.47;;;13.50;99.90;;;;;;5011676;28;20183;-61
2022/10/15 03:22:32;;;;;;;88.05;49.53;;;13.50;99.90;;;;;;4996684;28;20609;-59
2022/10/15 03:24:58;;;;;;;90.75;49.80;;;13.60;99.90;;;;;;5011046;28;20177;-57
2022/10/15 03:27:26;;;;;;;95.53;52.40;;;13.50;99.90;;;;;;5007620;28;20185;-62
2022/10/15 03:29:53;;;;;;;86.38;50.33;;;13.50;99.90;;;;;;5010500;28;20208;-58
2022/10/15 03:32:20;;;;;;;94.65;51.85;;;13.60;99.90;;;;;;4996340;28;20188;-58
2022/10/15 03:34:46;;;;;;;94.18;50.72;;;13.60;99.90;;;;;;4996244;28;20180;-58
2022/10/15 03:37:15;;;;;;;90.00;49.50;;;13.60;99.90;;;;;;5012353;28;20181;-59
2022/10/15 03:39:42;;;;;;;100.38;50.85;;;13.60;99.90;;;;;;4995197;28;20180;-62
2022/10/15 03:42:08;;;;;;;95.72;51.35;;;13.60;99.90;;;;;;5023323;28;20573;-58
2022/10/15 03:44:43;;;;;;;96.18;50.95;;;13.60;99.90;;;;;;5013560;28;20169;-58
2022/10/15 03:47:12;;;;;;;97.00;52.10;;;13.60;99.90;;;;;;5012349;28;20224;-58
2022/10/15 03:49:48;;;;;;;94.88;49.92;;;13.60;99.90;;;;;;5013854;28;20286;-60
2022/10/15 03:52:15;;;;;;;99.15;49.72;;;13.60;99.90;;;;;;5022760;28;20185;-59
2022/10/15 03:54:41;;;;;;;100.50;50.58;;;13.60;99.90;;;;;;5005090;28;20275;-59
2022/10/15 03:57:08;;;;;;;94.20;51.70;;;13.60;99.90;;;;;;5012301;28;20211;-58
2022/10/15 03:59:39;;;;;;;94.47;51.20;;;13.60;99.90;;;;;;5028850;28;20184;-58
2022/10/15 04:02:05;;;;;;;104.22;51.63;;;13.60;99.90;;;;;;5023348;28;20193;-59
2022/10/15 04:04:32;;;;;;;105.25;53.25;;;13.60;99.90;;;;;;5011567;28;20238;-59
2022/10/15 04:06:58;;;;;;;95.97;52.30;;;13.60;99.90;;;;;;5011946;28;20657;-58
2022/10/15 04:09:24;;;;;;;90.85;51.20;;;13.60;99.90;;;;;;5011743;28;20199;-58
2022/10/15 04:11:50;;;;;;;108.82;52.72;;;13.60;99.90;;;;;;5010153;28;20188;-58
2022/10/15 04:14:19;;;;;;;98.10;50.78;;;13.60;99.90;;;;;;5005766;28;20311;-60
2022/10/15 04:16:44;;;;;;;100.35;52.60;;;13.60;99.90;;;;;;4978209;28;20223;-58
2022/10/15 04:19:16;;;;;;;104.85;52.75;;;13.50;99.90;;;;;;4995119;28;20212;-59
2022/10/15 04:21:48;;;;;;;100.40;51.55;;;13.50;99.90;;;;;;5012006;28;20180;-60
2022/10/15 04:24:26;;;;;;;101.95;52.03;;;13.50;99.90;;;;;;5022479;28;20187;-58
2022/10/15 04:26:52;;;;;;;99.15;52.88;;;13.50;99.90;;;;;;5031625;28;20176;-59
2022/10/15 04:29:18;;;;;;;112.32;52.97;;;13.50;99.90;;;;;;5015762;28;20339;-58
2022/10/15 04:31:44;;;;;;;103.97;52.85;;;13.50;99.90;;;;;;4991984;28;20650;-58
2022/10/15 04:34:10;;;;;;;110.20;54.70;;;13.50;99.90;;;;;;5011788;28;20183;-58
2022/10/15 04:36:36;;;;;;;102.53;53.00;;;13.50;99.90;;;;;;5013922;28;20692;-58
2022/10/15 04:39:07;;;;;;;109.38;53.78;;;13.50;99.90;;;;;;5015748;28;20192;-58
2022/10/15 04:41:39;;;;;;;103.93;52.83;;;13.60;99.90;;;;;;4995677;28;20736;-59
2022/10/15 04:44:13;;;;;;;110.38;55.50;;;13.50;99.90;;;;;;5017417;28;20198;-59
2022/10/15 04:46:41;;;;;;;117.53;56.55;;;13.50;99.90;;;;;;5021357;28;20228;-58
2022/10/15 04:49:32;;;;;;;107.10;53.42;;;13.60;99.90;;;;;;5013439;28;20294;-59
2022/10/15 04:51:57;;;;;;;102.78;51.30;;;13.60;99.90;;;;;;5011222;28;20666;-60
2022/10/15 04:54:28;;;;;;;105.07;50.75;;;13.60;99.90;;;;;;5014790;28;20222;-58
2022/10/15 04:57:04;;;;;;;103.05;50.53;;;13.60;99.90;;;;;;5014933;28;20180;-58
2022/10/15 04:59:30;;;;;;;108.50;50.53;;;13.60;99.90;;;;;;5017097;28;20769;-56
2022/10/15 05:02:33;;;;;;;108.03;50.17;;;13.60;99.90;;;;;;4988594;28;20189;-57
2022/10/15 05:05:22;;;;;;;96.88;50.30;;;13.50;99.90;;;;;;4994485;28;20227;-57
2022/10/15 05:07:58;;;;;;;105.85;52.08;;;13.50;99.90;;;;;;5007673;28;20208;-58
2022/10/15 05:10:24;;;;;;;111.63;51.95;;;13.50;99.90;;;;;;5013906;28;20215;-61
2022/10/15 05:12:51;;;;;;;108.55;50.63;;;13.50;99.90;;;;;;5011403;28;20198;-59
2022/10/15 05:15:25;;;;;;;105.55;52.13;;;13.40;99.90;;;;;;5014723;28;20180;-58
2022/10/15 05:17:50;;;;;;;109.53;53.33;;;13.40;99.90;;;;;;5014976;28;20189;-58
2022/10/15 05:20:16;;;;;;;118.20;53.88;;;13.40;99.90;;;;;;5014168;28;20665;-59
2022/10/15 05:22:42;;;;;;;123.25;55.05;;;13.30;99.90;;;;;;5010508;28;20641;-59
2022/10/15 05:25:08;;;;;;;125.20;57.50;;;13.30;99.90;;;;;;4997529;28;20200;-56
2022/10/15 05:27:36;;;;;;;121.95;57.08;;;13.40;99.90;;;;;;5015926;28;20177;-54
2022/10/15 05:30:04;;;;;;;128.23;56.10;;;13.40;99.90;;;;;;5014467;28;20587;-60
2022/10/15 05:32:51;;;;;;;124.57;57.80;;;13.40;99.90;;;;;;5011955;28;20693;-62
2022/10/15 05:35:18;;;;;;;116.72;57.47;;;13.30;99.90;;;;;;5012122;28;20200;-58
2022/10/15 05:37:53;;;;;;;125.40;56.33;;;13.40;99.90;;;;;;5013513;28;20191;-59
2022/10/15 05:40:19;;;;;;;117.15;57.70;;;13.40;99.90;;;;;;5013998;28;20197;-58
2022/10/15 05:42:56;;;;;;;118.95;56.22;;;13.40;99.90;;;;;;5011775;28;20701;-63
2022/10/15 05:45:22;;;;;;;124.18;58.90;;;13.40;99.90;;;;;;5010556;28;20322;-57
2022/10/15 05:47:52;;;;;;;123.60;57.85;;;13.40;99.90;;;;;;4998131;28;20220;-59
2022/10/15 05:50:18;;;;;;;125.50;58.65;;;13.50;99.90;;;;;;5028956;28;20204;-58
2022/10/15 05:52:46;;;;;;;119.70;58.28;;;13.50;99.90;;;;;;5013697;28;20208;-54
2022/10/15 05:55:18;;;;;;;126.47;57.35;;;13.50;99.90;;;;;;5014216;28;20188;-58
2022/10/15 05:57:44;;;;;;;121.68;57.47;;;13.50;99.90;;;;;;5014941;28;20599;-58
2022/10/15 06:00:10;;;;;;;122.68;58.00;;;13.50;99.90;;;;;;5014065;28;20224;-57
2022/10/15 06:02:38;;;;;;;124.38;58.00;;;13.50;99.90;;;;;;5011261;28;20234;-56
2022/10/15 06:05:05;;;;;;;122.40;57.00;;;13.50;99.90;;;;;;5014820;28;20587;-58
2022/10/15 06:07:31;;;;;;;116.55;58.20;;;13.50;99.90;;;;;;5014369;28;20676;-57
2022/10/15 06:10:02;;;;;;;122.97;57.42;;;13.50;99.90;;;;;;5008108;28;20209;-56
2022/10/15 06:12:32;;;;;;;118.95;56.83;;;13.50;99.90;;;;;;5005115;28;20196;-60
2022/10/15 06:14:58;;;;;;;117.65;57.03;;;13.50;99.90;;;;;;4999129;28;20664;-67
2022/10/15 06:17:24;;;;;;;105.63;56.58;;;13.50;99.90;;;;;;5002437;28;20192;-56
2022/10/15 06:19:50;;;;;;;108.05;55.72;;;13.50;99.90;;;;;;4997854;28;20248;-69
2022/10/15 06:22:15;;;;;;;107.95;54.50;;;13.50;99.90;;;;;;4994757;28;20189;-58
2022/10/15 06:24:41;;;;;;;108.43;54.65;;;13.50;99.90;;;;;;5014308;28;20208;-59
2022/10/15 06:27:08;;;;;;;107.43;53.95;;;13.50;99.90;;;;;;5001671;28;20219;-59
2022/10/15 06:29:34;;;;;;;109.22;56.00;;;13.50;99.90;;;;;;5015663;28;20220;-57
2022/10/15 06:32:00;;;;;;;108.53;52.25;;;13.50;99.90;;;;;;5010355;28;20196;-56
2022/10/15 06:34:26;;;;;;;105.05;52.80;;;13.60;99.90;;;;;;5010111;28;20196;-57
2022/10/15 06:36:52;;;;;;;101.15;52.00;;;13.60;99.90;;;;;;5004822;28;20185;-58
2022/10/15 06:39:18;;;;;;;110.82;53.97;;;13.60;99.90;;;;;;5012114;28;20185;-64
2022/10/15 06:41:43;;;;;;;114.82;56.10;;;13.60;99.90;;;;;;5012433;28;20193;-60
2022/10/15 06:44:09;;;;;;;123.65;55.63;;;13.60;99.90;;;;;;5014431;28;20179;-57
2022/10/15 06:46:36;;;;;;;114.80;54.97;;;13.60;99.90;;;;;;4994295;28;20228;-56
2022/10/15 06:49:02;;;;;;;123.55;57.47;;;13.60;99.90;;;;;;5000672;28;20181;-56
2022/10/15 06:51:28;;;;;;;115.30;55.97;;;13.60;99.90;;;;;;4995964;28;20207;-56
2022/10/15 06:53:53;;;;;;;120.63;57.65;;;13.70;99.90;;;;;;5003976;28;20560;-57
2022/10/15 06:56:19;;;;;;;123.88;58.33;;;13.70;99.90;;;;;;5013236;28;20193;-55
2022/10/15 06:58:45;;;;;;;118.88;58.47;;;13.70;99.90;;;;;;5004824;28;20659;-55
2022/10/15 07:01:11;;;;;;;119.25;57.88;;;13.70;99.90;;;;;;5006639;28;20177;-56
2022/10/15 07:03:37;;;;;;;125.18;60.58;;;13.70;99.90;;;;;;5012233;28;20646;-58
2022/10/15 07:06:06;;;;;;;122.47;61.10;;;13.70;99.90;;;;;;5014026;28;20188;-56
2022/10/15 07:08:32;;;;;;;121.18;61.00;;;13.70;99.90;;;;;;5008423;28;20192;-54
2022/10/15 07:11:01;;;;;;;126.80;60.05;;;13.70;99.90;;;;;;4998211;28;20216;-66
2022/10/15 07:13:28;;;;;;;121.40;57.67;;;13.70;99.90;;;;;;5007927;28;20192;-57
2022/10/15 07:15:54;;;;;;;120.78;57.95;;;13.80;99.90;;;;;;5011685;28;20607;-57
2022/10/15 07:18:21;;;;;;;119.32;57.50;;;13.70;99.90;;;;;;5011206;28;20180;-66
2022/10/15 07:20:46;;;;;;;119.82;57.70;;;13.80;99.90;;;;;;5000243;28;20654;-65
2022/10/15 07:23:12;;;;;;;119.75;56.38;;;13.80;99.90;;;;;;5003552;28;20192;-58
2022/10/15 07:25:38;;;;;;;114.93;56.70;;;13.80;99.90;;;;;;5013497;28;20418;-55
2022/10/15 07:28:04;;;;;;;111.03;56.42;;;13.80;99.90;;;;;;5009793;28;20192;-57
2022/10/15 07:30:30;;;;;;;108.78;54.47;;;13.90;99.90;;;;;;5009426;28;20315;-59
2022/10/15 07:32:57;;;;;;;105.40;52.35;;;13.90;99.90;;;;;;4999122;28;20192;-56
2022/10/15 07:35:24;;;;;;;95.82;50.63;;;13.90;99.90;;;;;;5013645;28;20596;-57
2022/10/15 07:37:50;;;;;;;88.05;48.97;;;13.90;99.90;;;;;;5008679;28;20178;-56
2022/10/15 07:40:17;;;;;;;87.80;47.45;;;13.90;99.90;;;;;;5012210;28;20181;-57
2022/10/15 07:42:43;;;;;;;87.18;48.35;;;13.90;99.90;;;;;;5001420;28;20768;-59
2022/10/15 07:45:09;;;;;;;79.05;44.83;;;13.90;99.90;;;;;;5008346;28;20196;-56
2022/10/15 07:47:35;;;;;;;76.90;44.08;;;13.90;99.90;;;;;;5002524;28;20639;-55
2022/10/15 07:50:01;;;;;;;76.13;43.63;;;13.90;99.90;;;;;;4993330;28;20224;-57
2022/10/15 07:52:27;;;;;;;76.95;39.92;;;13.90;99.90;;;;;;4995335;28;20180;-55
2022/10/15 07:54:52;;;;;;;69.22;38.53;;;13.90;99.90;;;;;;4998020;28;20197;-56
2022/10/15 07:57:18;;;;;;;73.28;37.78;;;13.90;99.90;;;;;;5011754;28;20184;-55
2022/10/15 07:59:45;;;;;;;66.10;38.17;;;13.90;99.90;;;;;;5014086;28;20184;-57
2022/10/15 08:02:17;;;;;;;66.25;37.00;;;13.90;99.90;;;;;;5008879;28;20176;-59
2022/10/15 08:04:43;;;;;;;67.35;35.30;;;13.90;99.90;;;;;;4999374;28;20272;-58
2022/10/15 08:07:09;;;;;;;63.08;35.95;;;14.00;99.90;;;;;;5001953;28;20267;-58
2022/10/15 08:09:35;;;;;;;64.13;35.67;;;14.00;99.90;;;;;;5010336;28;20362;-53
2022/10/15 08:12:01;;;;;;;64.20;36.00;;;14.00;99.90;;;;;;5014451;28;20251;-55
2022/10/15 08:14:26;;;;;;;67.15;36.95;;;14.00;99.90;;;;;;5017889;28;20180;-57
2022/10/15 08:16:52;;;;;;;62.88;35.42;;;14.10;99.90;;;;;;5010542;28;20196;-62
2022/10/15 08:19:18;;;;;;;68.50;36.35;;;14.10;99.90;;;;;;5000422;28;20228;-55
2022/10/15 08:21:45;;;;;;;71.88;36.03;;;14.10;99.90;;;;;;5009667;28;20215;-57
2022/10/15 08:24:11;;;;;;;71.82;37.38;;;14.20;99.90;;;;;;5014737;28;20556;-57
2022/10/15 08:26:36;;;;;;;75.07;37.88;;;14.10;99.90;;;;;;5013981;28;20257;-57
2022/10/15 08:29:02;;;;;;;70.95;37.65;;;14.10;99.90;;;;;;5014096;28;20185;-64
2022/10/15 08:31:28;;;;;;;70.05;38.47;;;14.20;99.90;;;;;;5005406;28;20184;-55
2022/10/15 08:33:54;;;;;;;71.70;38.75;;;14.20;99.90;;;;;;5016839;28;20197;-55
2022/10/15 08:36:20;;;;;;;72.95;36.08;;;14.20;99.90;;;;;;5014282;28;20263;-57
2022/10/15 08:38:47;;;;;;;70.22;36.95;;;14.20;99.90;;;;;;5002035;28;20185;-56
2022/10/15 08:41:35;;;;;;;62.17;33.42;;;14.20;99.90;;;;;;5002430;28;20262;-62
2022/10/15 08:44:01;;;;;;;64.15;34.55;;;14.30;99.90;;;;;;4997165;28;20558;-56
2022/10/15 08:46:44;;;;;;;63.25;35.25;;;14.30;99.90;;;;;;4995348;28;20229;-60
2022/10/15 08:49:32;;;;;;;65.20;33.80;;;14.30;99.90;;;;;;4996908;28;20307;-57
2022/10/15 08:52:16;;;;;;;69.22;35.03;;;14.40;99.90;;;;;;5004105;28;20180;-57
2022/10/15 08:54:41;;;;;;;63.45;34.67;;;14.40;99.90;;;;;;5015301;28;20184;-58
2022/10/15 08:57:21;;;;;;;68.25;35.03;;;14.50;99.90;;;;;;5009970;28;20173;-57
2022/10/15 09:00:17;;;;;;;69.72;35.00;;;14.50;99.90;;;;;;4997126;28;20177;-55
2022/10/15 09:02:47;;;;;;;74.13;35.92;;;14.50;99.90;;;;;;5002737;28;20196;-56
2022/10/15 09:05:25;;;;;;;76.10;39.13;;;14.60;99.90;;;;;;5016321;28;20588;-57
2022/10/15 09:07:54;;;;;;;87.68;41.83;;;14.60;99.90;;;;;;5010608;28;20176;-56
2022/10/15 09:10:30;;;;;;;94.68;41.10;;;14.60;99.90;;;;;;5016232;28;20204;-57
2022/10/15 09:13:09;;;;;;;87.85;41.67;;;14.70;99.90;;;;;;5011181;28;20267;-56
2022/10/15 09:16:03;;;;;;;92.63;42.67;;;14.70;99.90;;;;;;5016128;28;20234;-56
2022/10/15 09:18:34;;;;;;;92.53;41.33;;;14.70;99.90;;;;;;5014230;28;20532;-57
2022/10/15 09:21:03;;;;;;;80.22;37.85;;;14.80;99.90;;;;;;5014260;28;20645;-58
2022/10/15 09:23:29;;;;;;;82.18;40.72;;;14.80;99.90;;;;;;4999752;28;20197;-56
2022/10/15 09:26:15;;;;;;;79.30;39.63;;;14.80;99.90;;;;;;5005265;28;20594;-57
2022/10/15 09:29:07;;;;;;;79.07;39.50;;;14.80;99.90;;;;;;5004276;28;20567;-56
2022/10/15 09:32:14;;;;;;;71.70;36.92;;;14.80;99.90;;;;;;4994583;28;20524;-64
2022/10/15 09:34:46;;;;;;;71.53;36.03;;;14.80;99.90;;;;;;4996291;28;20530;-59
2022/10/15 09:37:22;;;;;;;68.47;36.75;;;14.90;99.90;;;;;;5005251;28;20177;-57
2022/10/15 09:40:13;;;;;;;70.20;37.60;;;14.90;99.90;;;;;;4996114;28;20279;-56
2022/10/15 09:42:41;;;;;;;64.93;36.60;;;15.00;99.90;;;;;;5002711;28;20207;-68
2022/10/15 09:45:13;;;;;;;63.80;36.40;;;15.00;99.90;;;;;;5001875;28;20189;-56
2022/10/15 09:47:41;;;;;;;62.22;35.95;;;15.10;99.90;;;;;;5011793;28;20224;-57
2022/10/15 09:50:13;;;;;;;61.97;35.15;;;15.20;99.90;;;;;;5013460;28;20270;-61
2022/10/15 09:52:53;;;;;;;58.08;35.30;;;15.20;99.90;;;;;;5028764;28;20605;-58
2022/10/15 09:55:44;;;;;;;53.03;35.53;;;15.20;99.90;;;;;;5011639;28;20216;-57
2022/10/15 09:58:17;;;;;;;53.85;34.83;;;15.30;99.90;;;;;;5012092;28;20184;-56
2022/10/15 10:01:04;;;;;;;53.92;34.95;;;15.30;99.90;;;;;;5015266;28;20699;-56
2022/10/15 10:03:35;;;;;;;50.33;35.03;;;15.30;99.90;;;;;;5010974;28;20274;-57
2022/10/15 10:06:10;;;;;;;53.25;34.25;;;15.30;99.90;;;;;;5015453;28;20183;-59
2022/10/15 10:08:49;;;;;;;47.40;33.03;;;15.40;99.90;;;;;;4999320;28;20707;-58
2022/10/15 10:11:14;;;;;;;56.13;35.53;;;15.40;99.90;;;;;;5013234;28;20219;-57
2022/10/15 10:13:49;;;;;;;48.58;32.05;;;15.40;99.90;;;;;;5013231;28;20606;-56
2022/10/15 10:16:17;;;;;;;46.00;31.27;;;15.40;99.90;;;;;;5013576;28;20534;-57
2022/10/15 10:18:59;;;;;;;47.78;31.23;;;15.40;99.90;;;;;;4986421;28;20211;-59
2022/10/15 10:21:34;;;;;;;48.10;31.65;;;15.40;99.90;;;;;;5006037;28;20200;-59
2022/10/15 10:24:29;;;;;;;46.47;29.63;;;15.40;99.90;;;;;;5029463;28;20175;-57
2022/10/15 10:26:56;;;;;;;43.45;28.63;;;15.40;99.90;;;;;;4992376;28;20254;-59
2022/10/15 10:29:22;;;;;;;44.60;27.75;;;15.40;99.90;;;;;;4993936;28;20196;-59
2022/10/15 10:31:51;;;;;;;41.15;27.10;;;15.40;99.90;;;;;;4997144;28;20188;-57
2022/10/15 10:34:30;;;;;;;37.30;25.35;;;15.30;99.90;;;;;;5013944;28;20594;-57
2022/10/15 10:37:03;;;;;;;37.15;24.15;;;15.40;99.90;;;;;;5012369;28;20177;-57
2022/10/15 10:39:35;;;;;;;34.45;23.02;;;15.40;99.90;;;;;;5007845;28;20195;-57
2022/10/15 10:42:07;;;;;;;31.90;21.70;;;15.40;99.90;;;;;;5012386;28;20276;-59
2022/10/15 10:44:38;;;;;;;33.30;22.40;;;15.40;99.90;;;;;;5013064;28;20181;-55
2022/10/15 10:47:07;;;;;;;31.63;20.90;;;15.50;99.90;;;;;;5011272;28;20222;-59
2022/10/15 10:49:36;;;;;;;32.60;20.90;;;15.50;99.90;;;;;;4995742;28;20243;-72
2022/10/15 10:52:03;;;;;;;27.42;18.55;;;15.50;99.90;;;;;;5001092;28;20224;-58
2022/10/15 10:54:30;;;;;;;30.10;18.33;;;15.50;99.90;;;;;;5010385;28;20184;-65
2022/10/15 10:56:58;;;;;;;25.25;17.20;;;15.50;99.90;;;;;;5011533;28;20642;-58
2022/10/15 10:59:34;;;;;;;28.38;17.60;;;15.50;99.90;;;;;;5014532;28;20271;-58
2022/10/15 11:02:02;;;;;;;24.05;16.88;;;15.40;99.90;;;;;;5006466;28;20200;-57
2022/10/15 11:04:35;;;;;;;25.90;16.77;;;15.40;99.90;;;;;;5007707;28;20185;-60
2022/10/15 11:07:09;;;;;;;28.30;17.00;;;15.40;99.90;;;;;;5007253;28;20243;-57
2022/10/15 11:09:59;;;;;;;23.60;15.95;;;15.40;99.90;;;;;;5000182;28;20216;-56
2022/10/15 11:12:43;;;;;;;22.45;15.50;;;15.40;99.90;;;;;;5012245;28;20246;-56
2022/10/15 11:15:47;;;;;;;19.63;13.07;;;15.40;99.90;;;;;;5011533;28;20531;-56
2022/10/15 11:18:28;;;;;;;16.75;11.68;;;15.40;99.90;;;;;;5012052;28;20238;-57
2022/10/15 11:21:13;;;;;;;16.08;11.40;;;15.40;99.90;;;;;;5001575;28;20310;-70
2022/10/15 11:24:12;;;;;;;14.45;9.85;;;15.40;99.90;;;;;;5010708;28;20195;-60
2022/10/15 11:27:03;;;;;;;13.73;10.05;;;15.50;99.90;;;;;;5010641;28;20266;-62
2022/10/15 11:29:57;;;;;;;14.68;9.65;;;15.50;99.90;;;;;;5011080;28;20729;-57
2022/10/15 11:32:57;;;;;;;10.38;7.93;;;15.60;99.90;;;;;;5000934;28;20187;-58
2022/10/15 11:35:29;;;;;;;10.90;8.32;;;15.70;99.90;;;;;;5013818;28;20239;-56
2022/10/15 11:38:18;;;;;;;7.80;6.40;;;15.70;99.90;;;;;;5007763;28;20212;-63
2022/10/15 11:41:13;;;;;;;9.55;7.15;;;15.70;99.90;;;;;;5010600;28;20208;-58
2022/10/15 11:43:47;;;;;;;9.95;6.53;;;15.80;99.90;;;;;;5004338;28;20188;-58
2022/10/15 11:46:35;;;;;;;8.93;6.88;;;15.80;99.90;;;;;;5011362;28;20234;-60
2022/10/15 11:49:10;;;;;;;9.68;7.15;;;15.80;99.90;;;;;;5001060;28;20195;-58
2022/10/15 11:52:10;;;;;;;9.10;7.18;;;15.80;99.90;;;;;;5005854;28;20223;-60
2022/10/15 11:54:43;;;;;;;10.23;6.78;;;15.80;99.90;;;;;;4996906;28;20188;-67
2022/10/15 11:57:14;;;;;;;9.45;6.88;;;15.80;99.90;;;;;;4998992;28;20189;-59
2022/10/15 11:59:46;;;;;;;7.80;6.90;;;15.80;99.90;;;;;;5008707;28;20199;-59
2022/10/15 12:02:28;;;;;;;9.00;6.82;;;15.80;99.90;;;;;;5022772;28;20173;-58
2022/10/15 12:04:58;;;;;;;8.77;6.80;;;15.80;99.90;;;;;;4997085;28;20176;-59
2022/10/15 12:07:50;;;;;;;8.95;7.28;;;15.80;99.90;;;;;;5022511;28;20196;-61
2022/10/15 12:10:50;;;;;;;9.00;7.38;;;15.80;99.90;;;;;;5010727;28;20255;-57
2022/10/15 12:13:44;;;;;;;8.63;7.05;;;15.80;99.90;;;;;;5001671;28;20204;-59
2022/10/15 12:16:19;;;;;;;9.15;7.13;;;15.80;99.90;;;;;;5007346;28;20285;-56
2022/10/15 12:18:53;;;;;;;8.38;7.18;;;15.80;99.90;;;;;;5011873;28;20184;-56
2022/10/15 12:21:39;;;;;;;11.90;6.80;;;15.80;99.90;;;;;;5009094;28;20243;-56
2022/10/15 12:24:27;;;;;;;9.73;6.40;;;15.80;99.90;;;;;;5008525;28;20192;-57
2022/10/15 12:26:52;;;;;;;6.43;5.82;;;15.80;99.90;;;;;;5024953;28;20188;-56
2022/10/15 12:29:25;;;;;;;7.15;6.22;;;15.80;99.90;;;;;;4996260;28;20626;-56
2022/10/15 12:31:55;;;;;;;11.30;6.10;;;15.80;99.90;;;;;;5006742;28;20196;-59
2022/10/15 12:34:35;;;;;;;7.65;6.72;;;15.80;99.90;;;;;;4997904;28;20227;-58
2022/10/15 12:37:05;;;;;;;9.57;6.47;;;15.80;99.90;;;;;;5001479;28;20184;-57
2022/10/15 12:39:32;;;;;;;9.48;7.47;;;15.80;99.90;;;;;;5010560;28;20185;-57
2022/10/15 12:41:58;;;;;;;7.72;6.25;;;15.80;99.90;;;;;;5010343;28;20188;-58
2022/10/15 12:44:32;;;;;;;7.95;6.82;;;15.80;99.90;;;;;;4998953;28;20649;-59
2022/10/15 12:46:59;;;;;;;7.80;7.00;;;15.80;99.90;;;;;;4993392;28;20299;-60
2022/10/15 12:49:29;;;;;;;8.02;5.82;;;15.90;99.90;;;;;;4991320;28;20754;-59
2022/10/15 12:52:00;;;;;;;6.68;5.43;;;16.00;99.90;;;;;;5010609;28;20639;-58